Latest  Newer  Older  Last 2 hours animation  Current image  Latest image  Summary per 24h (testing)  Summary per 7d (testing) 
Cloud coverage sat images  Infrared sat images 
Real-time lightning map

All time is UTC (add 2 hours in wintertime, 3 hours in DST for Latvia local time)

2019/04/20 06:20 EVRA 200620Z 34009KT CAVOK 07/04 Q1029 NOSIG
2019/04/20 06:20 EVLA 200620Z AUTO 36004KT 280V070 9999 NCD 08/03 Q1031
2019/04/20 06:20 EVVA 200620Z AUTO 35008KT CAVOK 07/04 Q1031
2019/04/20 06:20 EYKA 200620Z 34005KT 290V030 CAVOK 09/M00 Q1028
2019/04/20 06:20 EYPA 200620Z VRB02KT CAVOK 08/03 Q1031
2019/04/20 06:20 EYSA 200620Z 34011KT CAVOK 09/01 Q1029 BLU NOSIG
2019/04/20 06:20 EYVI 200620Z 34007KT CAVOK 08/00 Q1027 NOSIG
2019/04/20 05:50 EEKA 200550Z 36009KT 9999 -RA SCT030 06/04 Q1031
2019/04/20 05:50 EEKE 200550Z AUTO 36009KT 9999NDV NSC 07/03 Q1031
2019/04/20 05:50 EEPU 200550Z 02007KT CAVOK 10/02 Q1029
2019/04/20 06:20 EETN 200620Z 04005KT CAVOK 09/02 Q1030 NOSIG
2019/04/20 05:50 EETU 200550Z AUTO 03006KT 360V080 9999 NCD 09/01 Q1028
   RIGA AIRPORT     EVRA               56 55N  023 58E   10   X     T          6 LV
   LIEPAJA INTL     EVLA        26406  56 31N  021 06E    4   X                8 LV
   VENTPILS         EVVA               57 21N  021 33E    6   X                8 LV
   KAUNAS           EYKA               54 54N  023 55E   77   X     T          6 LT
   PALANGA INTL     EYPA               55 55N  021 03E   10   X                6 LT
   SIAULIAI INTL    EYSA               55 54N  023 24E  135   X     T          6 LT
   VILNIUS INTL     EYVI        26730  54 38N  025 17E  197   X     T          6 LT
   KARDLA           EEKA        26116  58 59N  022 50E    4   X                8 EE
   KURESSAARE       EEKE               58 14N  022 31E    4   X                8 EE
   PARNU            EEPU               58 25N  024 28E   14   X                8 EE
   TALLINN          EETN        26038  59 24N  024 49E   40   X     T          8 EE
   TARTU            EETU               58 19N  026 41E   67   X                8 EE

rain/snow radar image from www.meteo.lv and METAR data from weather.noaa.gov